sensor_id;sensor_type;location;lat;lon;timestamp;pressure;altitude;pressure_sealevel;temperature;humidity
12475;BME280;6302;42.624;23.334;2022-10-17T00:01:37;94547.03;;;8.25;100.00
12475;BME280;6302;42.624;23.334;2022-10-17T00:04:04;94554.22;;;8.24;100.00
12475;BME280;6302;42.624;23.334;2022-10-17T00:06:31;94551.56;;;8.24;100.00
12475;BME280;6302;42.624;23.334;2022-10-17T00:08:58;94553.34;;;8.20;100.00
12475;BME280;6302;42.624;23.334;2022-10-17T00:11:25;94536.53;;;8.09;100.00
12475;BME280;6302;42.624;23.334;2022-10-17T00:13:53;94546.38;;;8.12;100.00
12475;BME280;6302;42.624;23.334;2022-10-17T00:16:23;94552.38;;;8.09;100.00
12475;BME280;6302;42.624;23.334;2022-10-17T00:18:51;94555.69;;;8.06;100.00
12475;BME280;6302;42.624;23.334;2022-10-17T00:21:19;94546.19;;;8.02;100.00
12475;BME280;6302;42.624;23.334;2022-10-17T00:23:46;94557.78;;;7.97;100.00
12475;BME280;6302;42.624;23.334;2022-10-17T00:26:13;94552.81;;;7.96;100.00
12475;BME280;6302;42.624;23.334;2022-10-17T00:28:40;94549.00;;;7.93;100.00
12475;BME280;6302;42.624;23.334;2022-10-17T00:31:07;94549.00;;;7.93;100.00
12475;BME280;6302;42.624;23.334;2022-10-17T00:33:34;94546.63;;;7.88;100.00
12475;BME280;6302;42.624;23.334;2022-10-17T00:36:04;94545.94;;;7.91;100.00
12475;BME280;6302;42.624;23.334;2022-10-17T00:38:31;94553.44;;;7.89;100.00
12475;BME280;6302;42.624;23.334;2022-10-17T00:40:58;94554.94;;;7.90;100.00
12475;BME280;6302;42.624;23.334;2022-10-17T00:43:26;94538.41;;;7.74;100.00
12475;BME280;6302;42.624;23.334;2022-10-17T00:45:54;94551.91;;;7.88;100.00
12475;BME280;6302;42.624;23.334;2022-10-17T00:48:22;94556.50;;;7.91;100.00
12475;BME280;6302;42.624;23.334;2022-10-17T00:50:50;94557.59;;;7.90;100.00
12475;BME280;6302;42.624;23.334;2022-10-17T00:53:19;94560.22;;;7.90;100.00
12475;BME280;6302;42.624;23.334;2022-10-17T00:55:49;94563.16;;;7.85;100.00
12475;BME280;6302;42.624;23.334;2022-10-17T00:58:16;94538.66;;;7.69;100.00
12475;BME280;6302;42.624;23.334;2022-10-17T01:00:45;94557.69;;;7.78;100.00
12475;BME280;6302;42.624;23.334;2022-10-17T01:03:12;94554.22;;;7.74;100.00
12475;BME280;6302;42.624;23.334;2022-10-17T01:05:40;94549.81;;;7.62;100.00
12475;BME280;6302;42.624;23.334;2022-10-17T01:08:08;94553.66;;;7.65;100.00
12475;BME280;6302;42.624;23.334;2022-10-17T01:10:42;94556.59;;;7.63;100.00
12475;BME280;6302;42.624;23.334;2022-10-17T01:13:18;94556.53;;;7.60;100.00
12475;BME280;6302;42.624;23.334;2022-10-17T01:15:54;94550.41;;;7.56;100.00
12475;BME280;6302;42.624;23.334;2022-10-17T01:18:32;94554.50;;;7.53;100.00
12475;BME280;6302;42.624;23.334;2022-10-17T01:21:15;94552.56;;;7.50;100.00
12475;BME280;6302;42.624;23.334;2022-10-17T01:24:04;94548.72;;;7.48;100.00
12475;BME280;6302;42.624;23.334;2022-10-17T01:26:49;94552.81;;;7.45;100.00
12475;BME280;6302;42.624;23.334;2022-10-17T01:29:33;94541.06;;;7.43;100.00
12475;BME280;6302;42.624;23.334;2022-10-17T01:32:11;94549.31;;;7.41;100.00
12475;BME280;6302;42.624;23.334;2022-10-17T01:34:43;94556.03;;;7.39;100.00
12475;BME280;6302;42.624;23.334;2022-10-17T01:37:17;94548.47;;;7.37;100.00
12475;BME280;6302;42.624;23.334;2022-10-17T01:39:47;94551.44;;;7.36;100.00
12475;BME280;6302;42.624;23.334;2022-10-17T01:42:17;94543.53;;;7.36;100.00
12475;BME280;6302;42.624;23.334;2022-10-17T01:44:48;94553.75;;;7.37;100.00
12475;BME280;6302;42.624;23.334;2022-10-17T01:47:21;94551.53;;;7.39;100.00
12475;BME280;6302;42.624;23.334;2022-10-17T01:49:52;94554.94;;;7.40;100.00
12475;BME280;6302;42.624;23.334;2022-10-17T01:52:23;94559.44;;;7.39;100.00
12475;BME280;6302;42.624;23.334;2022-10-17T01:54:54;94549.06;;;7.31;100.00
12475;BME280;6302;42.624;23.334;2022-10-17T01:57:26;94561.13;;;7.32;100.00
12475;BME280;6302;42.624;23.334;2022-10-17T01:59:55;94564.88;;;7.31;100.00
12475;BME280;6302;42.624;23.334;2022-10-17T02:02:25;94560.72;;;7.30;100.00
12475;BME280;6302;42.624;23.334;2022-10-17T02:04:54;94565.63;;;7.31;100.00
12475;BME280;6302;42.624;23.334;2022-10-17T02:07:22;94559.00;;;7.21;100.00
12475;BME280;6302;42.624;23.334;2022-10-17T02:09:49;94556.78;;;7.23;100.00
12475;BME280;6302;42.624;23.334;2022-10-17T02:15:26;94568.44;;;7.22;100.00
12475;BME280;6302;42.624;23.334;2022-10-17T02:18:02;94543.94;;;7.06;100.00
12475;BME280;6302;42.624;23.334;2022-10-17T02:20:36;94565.19;;;7.13;100.00
12475;BME280;6302;42.624;23.334;2022-10-17T02:23:09;94572.44;;;7.16;100.00
12475;BME280;6302;42.624;23.334;2022-10-17T02:25:40;94570.47;;;7.13;100.00
12475;BME280;6302;42.624;23.334;2022-10-17T02:28:17;94578.81;;;7.15;100.00
12475;BME280;6302;42.624;23.334;2022-10-17T02:30:50;94578.13;;;7.18;100.00
12475;BME280;6302;42.624;23.334;2022-10-17T02:33:23;94552.09;;;7.01;100.00
12475;BME280;6302;42.624;23.334;2022-10-17T02:35:53;94583.06;;;7.20;100.00
12475;BME280;6302;42.624;23.334;2022-10-17T02:38:22;94581.88;;;7.17;100.00
12475;BME280;6302;42.624;23.334;2022-10-17T02:40:52;94582.91;;;7.13;100.00
12475;BME280;6302;42.624;23.334;2022-10-17T02:43:19;94580.16;;;7.09;100.00
12475;BME280;6302;42.624;23.334;2022-10-17T02:45:50;94583.56;;;7.10;100.00
12475;BME280;6302;42.624;23.334;2022-10-17T02:48:27;94582.38;;;7.07;100.00
12475;BME280;6302;42.624;23.334;2022-10-17T02:51:00;94595.13;;;7.05;100.00
12475;BME280;6302;42.624;23.334;2022-10-17T02:53:32;94594.34;;;7.05;100.00
12475;BME280;6302;42.624;23.334;2022-10-17T02:56:05;94598.84;;;7.04;100.00
12475;BME280;6302;42.624;23.334;2022-10-17T02:58:35;94606.22;;;6.99;100.00
12475;BME280;6302;42.624;23.334;2022-10-17T03:01:03;94600.88;;;6.95;100.00
12475;BME280;6302;42.624;23.334;2022-10-17T03:03:32;94598.50;;;6.90;100.00
12475;BME280;6302;42.624;23.334;2022-10-17T03:05:58;94605.19;;;6.88;100.00
12475;BME280;6302;42.624;23.334;2022-10-17T03:08:25;94607.41;;;6.86;100.00
12475;BME280;6302;42.624;23.334;2022-10-17T03:10:52;94578.38;;;6.70;100.00
12475;BME280;6302;42.624;23.334;2022-10-17T03:13:19;94589.75;;;6.74;100.00
12475;BME280;6302;42.624;23.334;2022-10-17T03:15:46;94610.72;;;6.83;100.00
12475;BME280;6302;42.624;23.334;2022-10-17T03:18:13;94617.84;;;6.82;100.00
12475;BME280;6302;42.624;23.334;2022-10-17T03:20:41;94616.31;;;6.81;100.00
12475;BME280;6302;42.624;23.334;2022-10-17T03:23:08;94616.78;;;6.71;100.00
12475;BME280;6302;42.624;23.334;2022-10-17T03:25:35;94616.69;;;6.68;100.00
12475;BME280;6302;42.624;23.334;2022-10-17T03:28:02;94617.47;;;6.68;100.00
12475;BME280;6302;42.624;23.334;2022-10-17T03:30:30;94620.75;;;6.65;100.00
12475;BME280;6302;42.624;23.334;2022-10-17T03:32:57;94609.78;;;6.63;100.00
12475;BME280;6302;42.624;23.334;2022-10-17T03:35:24;94615.84;;;6.64;100.00
12475;BME280;6302;42.624;23.334;2022-10-17T03:37:54;94603.56;;;6.55;100.00
12475;BME280;6302;42.624;23.334;2022-10-17T03:40:21;94611.34;;;6.52;100.00
12475;BME280;6302;42.624;23.334;2022-10-17T03:42:50;94613.25;;;6.51;100.00
12475;BME280;6302;42.624;23.334;2022-10-17T03:45:17;94619.25;;;6.52;100.00
12475;BME280;6302;42.624;23.334;2022-10-17T03:47:43;94614.22;;;6.47;100.00
12475;BME280;6302;42.624;23.334;2022-10-17T03:50:10;94623.22;;;6.46;100.00
12475;BME280;6302;42.624;23.334;2022-10-17T03:52:37;94619.41;;;6.43;100.00
12475;BME280;6302;42.624;23.334;2022-10-17T03:55:06;94629.16;;;6.43;100.00
12475;BME280;6302;42.624;23.334;2022-10-17T03:57:34;94632.44;;;6.40;100.00
12475;BME280;6302;42.624;23.334;2022-10-17T04:00:01;94627.88;;;6.37;100.00
12475;BME280;6302;42.624;23.334;2022-10-17T04:02:28;94632.25;;;6.33;100.00
12475;BME280;6302;42.624;23.334;2022-10-17T04:04:55;94634.44;;;6.31;100.00
12475;BME280;6302;42.624;23.334;2022-10-17T04:07:22;94614.50;;;6.18;100.00
12475;BME280;6302;42.624;23.334;2022-10-17T04:09:49;94628.41;;;6.30;100.00
12475;BME280;6302;42.624;23.334;2022-10-17T04:12:17;94626.00;;;6.25;100.00
12475;BME280;6302;42.624;23.334;2022-10-17T04:14:44;94628.97;;;6.24;100.00
12475;BME280;6302;42.624;23.334;2022-10-17T04:17:11;94632.69;;;6.23;100.00
12475;BME280;6302;42.624;23.334;2022-10-17T04:19:37;94634.78;;;6.17;100.00
12475;BME280;6302;42.624;23.334;2022-10-17T04:22:04;94637.09;;;6.19;100.00
12475;BME280;6302;42.624;23.334;2022-10-17T04:24:33;94640.81;;;6.18;100.00
12475;BME280;6302;42.624;23.334;2022-10-17T04:26:59;94639.31;;;6.17;100.00
12475;BME280;6302;42.624;23.334;2022-10-17T04:29:28;94637.09;;;6.19;100.00
12475;BME280;6302;42.624;23.334;2022-10-17T04:31:55;94642.78;;;6.21;100.00
12475;BME280;6302;42.624;23.334;2022-10-17T04:34:22;94643.88;;;6.20;100.00
12475;BME280;6302;42.624;23.334;2022-10-17T04:36:49;94634.13;;;6.20;100.00
12475;BME280;6302;42.624;23.334;2022-10-17T04:39:16;94634.03;;;6.17;100.00
12475;BME280;6302;42.624;23.334;2022-10-17T04:41:43;94642.38;;;6.19;100.00
12475;BME280;6302;42.624;23.334;2022-10-17T04:44:10;94642.38;;;6.19;100.00
12475;BME280;6302;42.624;23.334;2022-10-17T04:46:38;94626.38;;;6.12;100.00
12475;BME280;6302;42.624;23.334;2022-10-17T04:49:05;94635.13;;;6.16;100.00
12475;BME280;6302;42.624;23.334;2022-10-17T04:51:32;94644.00;;;6.23;100.00
12475;BME280;6302;42.624;23.334;2022-10-17T04:53:58;94649.59;;;6.22;100.00
12475;BME280;6302;42.624;23.334;2022-10-17T04:56:25;94652.97;;;6.22;100.00
12475;BME280;6302;42.624;23.334;2022-10-17T04:58:52;94650.81;;;6.24;100.00
12475;BME280;6302;42.624;23.334;2022-10-17T05:01:20;94651.47;;;6.21;100.00
12475;BME280;6302;42.624;23.334;2022-10-17T05:03:48;94663.41;;;6.31;100.00
12475;BME280;6302;42.624;23.334;2022-10-17T05:06:17;94664.28;;;6.35;100.00
12475;BME280;6302;42.624;23.334;2022-10-17T05:08:44;94660.56;;;6.36;100.00
12475;BME280;6302;42.624;23.334;2022-10-17T05:11:16;94664.16;;;6.43;100.00
12475;BME280;6302;42.624;23.334;2022-10-17T05:13:43;94664.25;;;6.47;100.00
12475;BME280;6302;42.624;23.334;2022-10-17T05:16:10;94664.47;;;6.54;100.00
12475;BME280;6302;42.624;23.334;2022-10-17T05:18:37;94663.59;;;6.50;100.00
12475;BME280;6302;42.624;23.334;2022-10-17T05:21:05;94677.84;;;6.61;100.00
12475;BME280;6302;42.624;23.334;2022-10-17T05:23:32;94670.03;;;6.65;100.00
12475;BME280;6302;42.624;23.334;2022-10-17T05:25:59;94681.13;;;6.70;100.00
12475;BME280;6302;42.624;23.334;2022-10-17T05:28:25;94683.94;;;6.77;100.00
12475;BME280;6302;42.624;23.334;2022-10-17T05:30:52;94680.31;;;6.82;100.00
12475;BME280;6302;42.624;23.334;2022-10-17T05:33:19;94687.31;;;6.90;100.00
12475;BME280;6302;42.624;23.334;2022-10-17T05:35:47;94679.06;;;6.91;100.00
12475;BME280;6302;42.624;23.334;2022-10-17T05:38:15;94691.59;;;6.94;100.00
12475;BME280;6302;42.624;23.334;2022-10-17T05:40:42;94684.78;;;6.93;100.00
12475;BME280;6302;42.624;23.334;2022-10-17T05:43:09;94678.16;;;6.99;100.00
12475;BME280;6302;42.624;23.334;2022-10-17T05:45:36;94689.34;;;7.08;100.00
12475;BME280;6302;42.624;23.334;2022-10-17T05:48:03;94698.13;;;7.12;100.00
12475;BME280;6302;42.624;23.334;2022-10-17T05:50:30;94697.22;;;7.20;100.00
12475;BME280;6302;42.624;23.334;2022-10-17T05:52:57;94698.19;;;7.28;100.00
12475;BME280;6302;42.624;23.334;2022-10-17T05:55:25;94689.31;;;7.36;100.00
12475;BME280;6302;42.624;23.334;2022-10-17T05:57:52;94695.81;;;7.39;100.00
12475;BME280;6302;42.624;23.334;2022-10-17T06:00:19;94702.69;;;7.43;100.00
12475;BME280;6302;42.624;23.334;2022-10-17T06:02:46;94698.63;;;7.46;100.00
12475;BME280;6302;42.624;23.334;2022-10-17T06:05:14;94700.84;;;7.44;100.00
12475;BME280;6302;42.624;23.334;2022-10-17T06:07:41;94714.84;;;7.60;100.00
12475;BME280;6302;42.624;23.334;2022-10-17T06:10:08;94720.28;;;7.67;100.00
12475;BME280;6302;42.624;23.334;2022-10-17T06:12:38;94720.19;;;7.63;100.00
12475;BME280;6302;42.624;23.334;2022-10-17T06:15:06;94721.06;;;7.67;100.00
12475;BME280;6302;42.624;23.334;2022-10-17T06:17:33;94717.97;;;7.65;100.00
12475;BME280;6302;42.624;23.334;2022-10-17T06:19:59;94722.59;;;7.68;100.00
12475;BME280;6302;42.624;23.334;2022-10-17T06:22:26;94734.56;;;7.66;100.00
12475;BME280;6302;42.624;23.334;2022-10-17T06:24:53;94731.19;;;7.81;100.00
12475;BME280;6302;42.624;23.334;2022-10-17T06:27:20;94735.63;;;7.77;100.00
12475;BME280;6302;42.624;23.334;2022-10-17T06:29:48;94738.63;;;7.91;100.00
12475;BME280;6302;42.624;23.334;2022-10-17T06:32:16;94748.75;;;7.89;100.00
12475;BME280;6302;42.624;23.334;2022-10-17T06:34:43;94752.66;;;7.95;100.00
12475;BME280;6302;42.624;23.334;2022-10-17T06:37:09;94742.09;;;7.95;100.00
12475;BME280;6302;42.624;23.334;2022-10-17T06:39:36;94744.31;;;7.93;100.00
12475;BME280;6302;42.624;23.334;2022-10-17T06:42:03;94753.09;;;8.13;100.00
12475;BME280;6302;42.624;23.334;2022-10-17T06:44:30;94752.53;;;8.19;100.00
12475;BME280;6302;42.624;23.334;2022-10-17T06:46:58;94763.78;;;8.16;100.00
12475;BME280;6302;42.624;23.334;2022-10-17T06:49:27;94760.44;;;8.19;100.00
12475;BME280;6302;42.624;23.334;2022-10-17T06:51:54;94766.44;;;8.32;100.00
12475;BME280;6302;42.624;23.334;2022-10-17T06:54:21;94766.53;;;8.35;100.00
12475;BME280;6302;42.624;23.334;2022-10-17T06:56:48;94747.34;;;8.38;100.00
12475;BME280;6302;42.624;23.334;2022-10-17T06:59:15;94760.03;;;8.48;100.00
12475;BME280;6302;42.624;23.334;2022-10-17T07:01:41;94759.84;;;8.57;100.00
12475;BME280;6302;42.624;23.334;2022-10-17T07:04:10;94752.84;;;8.65;100.00
12475;BME280;6302;42.624;23.334;2022-10-17T07:06:38;94757.75;;;8.82;100.00
12475;BME280;6302;42.624;23.334;2022-10-17T07:09:05;94756.81;;;8.90;100.00
12475;BME280;6302;42.624;23.334;2022-10-17T07:11:33;94761.31;;;9.05;100.00
12475;BME280;6302;42.624;23.334;2022-10-17T07:14:00;94755.66;;;9.06;100.00
12475;BME280;6302;42.624;23.334;2022-10-17T07:16:29;94761.59;;;9.19;100.00
12475;BME280;6302;42.624;23.334;2022-10-17T07:18:56;94767.38;;;9.25;100.00
12475;BME280;6302;42.624;23.334;2022-10-17T07:21:24;94763.91;;;9.40;100.00
12475;BME280;6302;42.624;23.334;2022-10-17T07:23:51;94760.56;;;9.43;100.00
12475;BME280;6302;42.624;23.334;2022-10-17T07:26:18;94763.69;;;9.48;100.00
12475;BME280;6302;42.624;23.334;2022-10-17T07:28:50;94774.56;;;9.62;100.00
12475;BME280;6302;42.624;23.334;2022-10-17T07:31:18;94777.06;;;9.74;100.00
12475;BME280;6302;42.624;23.334;2022-10-17T07:33:45;94774.25;;;9.87;100.00
12475;BME280;6302;42.624;23.334;2022-10-17T07:36:12;94771.19;;;9.85;100.00
12475;BME280;6302;42.624;23.334;2022-10-17T07:38:41;94784.00;;;10.02;100.00
12475;BME280;6302;42.624;23.334;2022-10-17T07:41:10;94784.97;;;10.13;100.00
12475;BME280;6302;42.624;23.334;2022-10-17T07:43:37;94786.56;;;10.40;100.00
12475;BME280;6302;42.624;23.334;2022-10-17T07:46:06;94785.03;;;10.39;100.00
12475;BME280;6302;42.624;23.334;2022-10-17T07:48:33;94786.34;;;10.49;100.00
12475;BME280;6302;42.624;23.334;2022-10-17T07:51:01;94783.97;;;10.66;100.00
12475;BME280;6302;42.624;23.334;2022-10-17T07:53:29;94786.75;;;10.77;100.00
12475;BME280;6302;42.624;23.334;2022-10-17T07:55:57;94762.75;;;10.66;100.00
12475;BME280;6302;42.624;23.334;2022-10-17T07:58:24;94782.97;;;11.00;100.00
12475;BME280;6302;42.624;23.334;2022-10-17T08:00:53;94781.56;;;11.10;100.00
12475;BME280;6302;42.624;23.334;2022-10-17T08:03:19;94787.84;;;11.25;100.00
12475;BME280;6302;42.624;23.334;2022-10-17T08:05:46;94778.88;;;11.36;100.00
12475;BME280;6302;42.624;23.334;2022-10-17T08:08:13;94775.25;;;11.48;100.00
12475;BME280;6302;42.624;23.334;2022-10-17T08:10:40;94777.66;;;11.60;100.00
12475;BME280;6302;42.624;23.334;2022-10-17T08:13:08;94776.28;;;11.69;100.00
12475;BME280;6302;42.624;23.334;2022-10-17T08:15:36;94784.09;;;11.89;100.00
12475;BME280;6302;42.624;23.334;2022-10-17T08:18:04;94781.16;;;12.01;100.00
12475;BME280;6302;42.624;23.334;2022-10-17T08:20:31;94766.78;;;12.05;100.00
12475;BME280;6302;42.624;23.334;2022-10-17T08:22:57;94776.09;;;12.22;99.75
12475;BME280;6302;42.624;23.334;2022-10-17T08:25:24;94779.97;;;12.35;95.52
12475;BME280;6302;42.624;23.334;2022-10-17T08:27:51;94782.28;;;12.36;95.78
12475;BME280;6302;42.624;23.334;2022-10-17T08:30:19;94790.28;;;12.40;92.90
12475;BME280;6302;42.624;23.334;2022-10-17T08:32:46;94781.69;;;12.54;89.60
12475;BME280;6302;42.624;23.334;2022-10-17T08:35:13;94784.88;;;12.77;88.60
12475;BME280;6302;42.624;23.334;2022-10-17T08:37:40;94780.38;;;12.84;90.02
12475;BME280;6302;42.624;23.334;2022-10-17T08:40:10;94778.19;;;12.97;85.45
12475;BME280;6302;42.624;23.334;2022-10-17T08:42:50;94756.13;;;12.96;86.05
12475;BME280;6302;42.624;23.334;2022-10-17T08:45:28;94771.50;;;13.17;82.42
12475;BME280;6302;42.624;23.334;2022-10-17T08:47:59;94784.53;;;13.36;80.33
12475;BME280;6302;42.624;23.334;2022-10-17T08:50:31;94790.34;;;13.52;72.62
12475;BME280;6302;42.624;23.334;2022-10-17T08:53:05;94782.75;;;13.61;73.55
12475;BME280;6302;42.624;23.334;2022-10-17T08:55:35;94778.66;;;13.82;66.88
12475;BME280;6302;42.624;23.334;2022-10-17T08:58:11;94771.41;;;13.75;65.09
12475;BME280;6302;42.624;23.334;2022-10-17T09:00:41;94781.75;;;13.98;55.00
12475;BME280;6302;42.624;23.334;2022-10-17T09:03:21;94773.41;;;14.06;56.39
12475;BME280;6302;42.624;23.334;2022-10-17T09:06:02;94781.00;;;14.15;58.62
12475;BME280;6302;42.624;23.334;2022-10-17T09:08:37;94785.59;;;14.25;57.04
12475;BME280;6302;42.624;23.334;2022-10-17T09:11:17;94788.72;;;14.38;53.61
12475;BME280;6302;42.624;23.334;2022-10-17T09:13:59;94788.34;;;14.46;57.21
12475;BME280;6302;42.624;23.334;2022-10-17T09:16:46;94787.22;;;14.61;56.46
12475;BME280;6302;42.624;23.334;2022-10-17T09:19:19;94783.00;;;14.74;58.33
12475;BME280;6302;42.624;23.334;2022-10-17T09:21:51;94786.44;;;14.82;57.48
12475;BME280;6302;42.624;23.334;2022-10-17T09:24:22;94772.72;;;14.97;56.28
12475;BME280;6302;42.624;23.334;2022-10-17T09:26:53;94787.19;;;15.07;50.93
12475;BME280;6302;42.624;23.334;2022-10-17T09:29:23;94782.59;;;15.15;52.88
12475;BME280;6302;42.624;23.334;2022-10-17T09:31:59;94771.56;;;15.13;47.71
12475;BME280;6302;42.624;23.334;2022-10-17T09:34:29;94781.09;;;15.07;49.17
12475;BME280;6302;42.624;23.334;2022-10-17T09:36:57;94777.63;;;15.17;48.37
12475;BME280;6302;42.624;23.334;2022-10-17T09:39:25;94778.41;;;15.28;49.20
12475;BME280;6302;42.624;23.334;2022-10-17T09:41:57;94760.44;;;15.32;49.79
12475;BME280;6302;42.624;23.334;2022-10-17T09:44:29;94770.34;;;15.49;49.52
12475;BME280;6302;42.624;23.334;2022-10-17T09:47:21;94761.56;;;15.52;48.04
12475;BME280;6302;42.624;23.334;2022-10-17T09:49:51;94769.91;;;15.61;46.51
12475;BME280;6302;42.624;23.334;2022-10-17T09:52:21;94764.94;;;15.67;48.67
12475;BME280;6302;42.624;23.334;2022-10-17T09:54:52;94770.97;;;15.85;49.11
12475;BME280;6302;42.624;23.334;2022-10-17T09:57:21;94769.72;;;16.00;47.67
12475;BME280;6302;42.624;23.334;2022-10-17T09:59:56;94756.31;;;16.14;46.16
12475;BME280;6302;42.624;23.334;2022-10-17T10:02:26;94762.44;;;16.14;45.01
12475;BME280;6302;42.624;23.334;2022-10-17T10:04:58;94763.94;;;16.15;43.26
12475;BME280;6302;42.624;23.334;2022-10-17T10:07:27;94757.09;;;16.07;41.29
12475;BME280;6302;42.624;23.334;2022-10-17T10:09:54;94757.84;;;16.11;42.52
12475;BME280;6302;42.624;23.334;2022-10-17T10:12:24;94751.31;;;16.19;42.07
12475;BME280;6302;42.624;23.334;2022-10-17T10:14:51;94745.16;;;16.22;43.34
12475;BME280;6302;42.624;23.334;2022-10-17T10:17:36;94748.53;;;16.34;44.51
12475;BME280;6302;42.624;23.334;2022-10-17T10:20:25;94758.34;;;16.51;41.89
12475;BME280;6302;42.624;23.334;2022-10-17T10:23:08;94743.84;;;16.45;41.87
12475;BME280;6302;42.624;23.334;2022-10-17T10:25:37;94743.97;;;16.31;43.80
12475;BME280;6302;42.624;23.334;2022-10-17T10:28:09;94737.41;;;16.39;43.33
12475;BME280;6302;42.624;23.334;2022-10-17T10:30:36;94743.81;;;16.55;42.13
12475;BME280;6302;42.624;23.334;2022-10-17T10:33:04;94742.91;;;16.72;42.65
12475;BME280;6302;42.624;23.334;2022-10-17T10:35:33;94728.13;;;16.57;42.34
12475;BME280;6302;42.624;23.334;2022-10-17T10:38:03;94735.28;;;16.71;41.96
12475;BME280;6302;42.624;23.334;2022-10-17T10:40:37;94730.66;;;16.75;41.33
12475;BME280;6302;42.624;23.334;2022-10-17T10:43:05;94710.84;;;16.69;41.42
12475;BME280;6302;42.624;23.334;2022-10-17T10:45:40;94731.34;;;16.86;43.20
12475;BME280;6302;42.624;23.334;2022-10-17T10:48:18;94729.22;;;17.04;44.23
12475;BME280;6302;42.624;23.334;2022-10-17T10:50:49;94714.25;;;17.10;40.58
12475;BME280;6302;42.624;23.334;2022-10-17T10:53:40;94721.78;;;17.22;41.01
12475;BME280;6302;42.624;23.334;2022-10-17T10:56:12;94724.03;;;17.27;41.42
12475;BME280;6302;42.624;23.334;2022-10-17T10:58:48;94715.94;;;17.31;40.34
12475;BME280;6302;42.624;23.334;2022-10-17T11:01:21;94716.34;;;17.29;40.68
12475;BME280;6302;42.624;23.334;2022-10-17T11:04:16;94710.28;;;17.25;41.17
12475;BME280;6302;42.624;23.334;2022-10-17T11:06:45;94708.56;;;17.38;40.16
12475;BME280;6302;42.624;23.334;2022-10-17T11:09:22;94706.91;;;17.51;38.99
12475;BME280;6302;42.624;23.334;2022-10-17T11:11:54;94708.03;;;17.58;40.98
12475;BME280;6302;42.624;23.334;2022-10-17T11:14:33;94704.81;;;17.70;39.19
12475;BME280;6302;42.624;23.334;2022-10-17T11:17:09;94697.47;;;17.74;39.96
12475;BME280;6302;42.624;23.334;2022-10-17T11:19:44;94701.28;;;17.73;38.79
12475;BME280;6302;42.624;23.334;2022-10-17T11:22:18;94696.22;;;17.82;38.29
12475;BME280;6302;42.624;23.334;2022-10-17T11:24:51;94698.09;;;17.85;38.62
12475;BME280;6302;42.624;23.334;2022-10-17T11:27:21;94695.75;;;17.87;37.60
12475;BME280;6302;42.624;23.334;2022-10-17T11:29:49;94689.22;;;17.88;37.37
12475;BME280;6302;42.624;23.334;2022-10-17T11:32:19;94688.41;;;17.91;38.58
12475;BME280;6302;42.624;23.334;2022-10-17T11:34:52;94690.84;;;18.08;38.37
12475;BME280;6302;42.624;23.334;2022-10-17T11:37:25;94693.84;;;18.14;36.90
12475;BME280;6302;42.624;23.334;2022-10-17T11:39:54;94684.78;;;18.04;38.79
12475;BME280;6302;42.624;23.334;2022-10-17T11:42:24;94687.56;;;18.24;39.17
12475;BME280;6302;42.624;23.334;2022-10-17T11:44:58;94682.78;;;18.35;36.82
12475;BME280;6302;42.624;23.334;2022-10-17T11:47:33;94683.84;;;18.41;37.78
12475;BME280;6302;42.624;23.334;2022-10-17T11:50:10;94675.63;;;18.52;38.64
12475;BME280;6302;42.624;23.334;2022-10-17T11:52:44;94674.44;;;18.56;39.01
12475;BME280;6302;42.624;23.334;2022-10-17T11:55:15;94659.53;;;18.52;37.15
12475;BME280;6302;42.624;23.334;2022-10-17T11:57:55;94678.44;;;18.68;35.70
12475;BME280;6302;42.624;23.334;2022-10-17T12:00:34;94672.06;;;18.81;34.36
12475;BME280;6302;42.624;23.334;2022-10-17T12:03:16;94670.50;;;18.84;34.44
12475;BME280;6302;42.624;23.334;2022-10-17T12:05:49;94679.78;;;18.79;33.49
12475;BME280;6302;42.624;23.334;2022-10-17T12:08:24;94671.38;;;18.77;33.74
12475;BME280;6302;42.624;23.334;2022-10-17T12:10:59;94673.59;;;18.82;33.04
12475;BME280;6302;42.624;23.334;2022-10-17T12:13:53;94675.00;;;18.91;34.26
12475;BME280;6302;42.624;23.334;2022-10-17T12:16:38;94676.22;;;18.86;34.18
12475;BME280;6302;42.624;23.334;2022-10-17T12:19:32;94658.38;;;18.76;35.35
12475;BME280;6302;42.624;23.334;2022-10-17T12:22:19;94672.78;;;18.86;35.07
12475;BME280;6302;42.624;23.334;2022-10-17T12:24:55;94665.88;;;18.84;34.72
12475;BME280;6302;42.624;23.334;2022-10-17T12:27:38;94669.16;;;18.72;34.56
12475;BME280;6302;42.624;23.334;2022-10-17T12:30:21;94666.25;;;18.63;36.14
12475;BME280;6302;42.624;23.334;2022-10-17T12:32:57;94662.00;;;18.66;35.25
12475;BME280;6302;42.624;23.334;2022-10-17T12:35:26;94669.16;;;18.72;36.32
12475;BME280;6302;42.624;23.334;2022-10-17T12:40:58;94666.22;;;18.87;35.78
12475;BME280;6302;42.624;23.334;2022-10-17T12:43:44;94667.13;;;18.57;35.12
12475;BME280;6302;42.624;23.334;2022-10-17T12:46:11;94657.00;;;18.41;36.25
12475;BME280;6302;42.624;23.334;2022-10-17T12:49:03;94670.44;;;18.41;36.80
12475;BME280;6302;42.624;23.334;2022-10-17T12:54:56;94664.38;;;18.60;37.06
12475;BME280;6302;42.624;23.334;2022-10-17T12:57:30;94662.50;;;18.57;35.56
12475;BME280;6302;42.624;23.334;2022-10-17T13:00:02;94657.16;;;18.57;35.91
12475;BME280;6302;42.624;23.334;2022-10-17T13:02:30;94666.59;;;18.65;36.29
12475;BME280;6302;42.624;23.334;2022-10-17T13:05:04;94656.00;;;18.58;35.48
12475;BME280;6302;42.624;23.334;2022-10-17T13:07:33;94665.53;;;18.59;36.30
12475;BME280;6302;42.624;23.334;2022-10-17T13:10:03;94660.06;;;18.66;35.19
12475;BME280;6302;42.624;23.334;2022-10-17T13:12:33;94658.66;;;18.58;36.43
12475;BME280;6302;42.624;23.334;2022-10-17T13:15:04;94659.34;;;18.62;37.23
12475;BME280;6302;42.624;23.334;2022-10-17T13:17:33;94651.53;;;18.71;38.60
12475;BME280;6302;42.624;23.334;2022-10-17T13:20:00;94653.63;;;18.83;38.87
12475;BME280;6302;42.624;23.334;2022-10-17T13:22:28;94652.31;;;18.92;36.39
12475;BME280;6302;42.624;23.334;2022-10-17T13:25:07;94651.97;;;18.90;35.62
12475;BME280;6302;42.624;23.334;2022-10-17T13:27:35;94658.03;;;18.94;36.49